createdAt,value
2022-07-25T00:01:36.720Z,84.88
2022-07-25T00:04:05.333Z,84.87
2022-07-25T00:06:32.333Z,86.23
2022-07-25T00:08:59.003Z,85.68
2022-07-25T00:11:25.671Z,85.31
2022-07-25T00:13:52.397Z,85.83
2022-07-25T00:16:19.175Z,85.73
2022-07-25T00:18:45.856Z,85.17
2022-07-25T00:21:12.598Z,86.05
2022-07-25T00:23:39.243Z,85.25
2022-07-25T00:26:06.009Z,86.36
2022-07-25T00:28:32.803Z,86.19
2022-07-25T00:30:59.594Z,85.66
2022-07-25T00:33:26.224Z,86.13
2022-07-25T00:35:52.801Z,85.78
2022-07-25T00:38:19.455Z,86.42
2022-07-25T00:40:46.090Z,86.27
2022-07-25T00:43:21.138Z,86.29
2022-07-25T00:45:48.006Z,86.13
2022-07-25T00:48:14.633Z,85.73
2022-07-25T00:50:41.340Z,86.39
2022-07-25T00:53:08.068Z,86.13
2022-07-25T00:55:34.686Z,85.78
2022-07-25T00:58:01.293Z,85.43
2022-07-25T01:00:27.898Z,85.47
2022-07-25T01:02:54.652Z,85.84
2022-07-25T01:05:21.275Z,86.32
2022-07-25T01:07:47.833Z,86.42
2022-07-25T01:10:14.503Z,86.28
2022-07-25T01:12:48.657Z,86.89
2022-07-25T01:15:19.385Z,86.65
2022-07-25T01:17:46.087Z,86.78
2022-07-25T01:20:16.946Z,86.35
2022-07-25T01:22:44.088Z,86.79
2022-07-25T01:25:11.509Z,87.54
2022-07-25T01:27:38.365Z,86.97
2022-07-25T01:30:06.504Z,87.16
2022-07-25T01:32:34.420Z,87.34
2022-07-25T01:35:01.244Z,87.20
2022-07-25T01:37:27.904Z,86.65
2022-07-25T01:39:54.481Z,87.06
2022-07-25T01:42:21.128Z,86.73
2022-07-25T01:44:47.734Z,86.69
2022-07-25T01:47:15.800Z,86.75
2022-07-25T01:49:42.681Z,86.72
2022-07-25T01:52:09.347Z,88.12
2022-07-25T01:54:36.112Z,87.81
2022-07-25T01:57:02.719Z,87.28
2022-07-25T01:59:29.335Z,86.98
2022-07-25T02:01:56.105Z,86.66
2022-07-25T02:04:22.947Z,86.19
2022-07-25T02:06:49.686Z,86.64
2022-07-25T02:09:16.422Z,86.85
2022-07-25T02:11:43.026Z,86.90
2022-07-25T02:14:09.835Z,87.24
2022-07-25T02:16:36.727Z,87.40
2022-07-25T02:19:03.463Z,87.98
2022-07-25T02:21:30.153Z,87.74
2022-07-25T02:23:56.767Z,87.72
2022-07-25T02:26:23.425Z,88.35
2022-07-25T02:28:50.268Z,87.83
2022-07-25T02:31:16.914Z,87.86
2022-07-25T02:33:43.653Z,87.56
2022-07-25T02:36:10.971Z,88.13
2022-07-25T02:38:37.838Z,87.89
2022-07-25T02:41:04.770Z,88.38
2022-07-25T02:43:31.433Z,87.87
2022-07-25T02:45:58.112Z,87.50
2022-07-25T02:48:24.908Z,88.04
2022-07-25T02:50:51.549Z,87.62
2022-07-25T02:53:33.937Z,87.54
2022-07-25T02:56:05.433Z,88.76
2022-07-25T02:58:33.572Z,88.09
2022-07-25T03:01:00.818Z,87.40
2022-07-25T03:03:27.593Z,87.81
2022-07-25T03:05:54.606Z,88.35
2022-07-25T03:08:21.206Z,88.05
2022-07-25T03:10:47.764Z,88.18
2022-07-25T03:16:42.245Z,88.60
2022-07-25T03:19:08.897Z,88.49
2022-07-25T03:21:35.569Z,87.78
2022-07-25T03:24:02.479Z,88.08
2022-07-25T03:26:29.125Z,88.33
2022-07-25T03:28:56.037Z,87.23
2022-07-25T03:31:22.762Z,87.46
2022-07-25T03:33:49.496Z,87.72
2022-07-25T03:36:16.141Z,87.65
2022-07-25T03:38:42.726Z,88.64
2022-07-25T03:41:09.420Z,88.27
2022-07-25T03:43:36.155Z,88.41
2022-07-25T03:46:02.857Z,88.14
2022-07-25T03:48:29.544Z,88.68
2022-07-25T03:50:56.801Z,88.38
2022-07-25T03:53:23.447Z,88.89
2022-07-25T03:55:50.130Z,88.72
2022-07-25T03:58:17.027Z,88.91
2022-07-25T04:00:43.804Z,88.18
2022-07-25T04:03:10.593Z,88.31
2022-07-25T04:05:37.438Z,88.47
2022-07-25T04:08:04.300Z,88.83
2022-07-25T04:10:31.269Z,89.14
2022-07-25T04:12:58.048Z,89.40
2022-07-25T04:15:24.694Z,89.54
2022-07-25T04:17:51.351Z,89.05
2022-07-25T04:20:18.622Z,89.89
2022-07-25T04:22:47.123Z,89.66
2022-07-25T04:25:13.876Z,89.43
2022-07-25T04:27:40.527Z,88.48
2022-07-25T04:30:07.587Z,88.44
2022-07-25T04:32:34.359Z,89.70
2022-07-25T04:35:00.982Z,89.17
2022-07-25T04:37:27.553Z,89.58
2022-07-25T04:39:54.162Z,89.01
2022-07-25T04:42:20.807Z,88.20
2022-07-25T04:44:47.429Z,88.43
2022-07-25T04:47:14.015Z,88.18
2022-07-25T04:49:40.627Z,89.16
2022-07-25T04:52:07.207Z,89.76
2022-07-25T04:54:33.947Z,90.06
2022-07-25T04:57:00.579Z,89.74
2022-07-25T04:59:27.532Z,89.94
2022-07-25T05:01:54.235Z,89.91
2022-07-25T05:04:20.961Z,89.76
2022-07-25T05:06:47.526Z,89.45
2022-07-25T05:09:14.312Z,90.26
2022-07-25T05:11:46.756Z,89.26
2022-07-25T05:14:14.643Z,90.37
2022-07-25T05:16:41.359Z,89.69
2022-07-25T05:19:07.972Z,89.42
2022-07-25T05:21:34.686Z,89.85
2022-07-25T05:24:01.355Z,90.23
2022-07-25T05:26:28.679Z,90.36
2022-07-25T05:28:55.289Z,90.83
2022-07-25T05:31:21.982Z,89.85
2022-07-25T05:33:48.638Z,90.66
2022-07-25T05:36:15.643Z,90.29
2022-07-25T05:38:42.265Z,90.32
2022-07-25T05:41:08.893Z,90.66
2022-07-25T05:43:35.792Z,90.12
2022-07-25T05:46:03.203Z,90.17
2022-07-25T05:48:31.673Z,90.57
2022-07-25T05:50:58.327Z,89.98
2022-07-25T05:53:25.519Z,90.80
2022-07-25T05:55:52.204Z,90.70
2022-07-25T05:58:18.803Z,90.49
2022-07-25T06:00:45.426Z,90.84
2022-07-25T06:03:12.164Z,90.89
2022-07-25T06:05:38.871Z,91.67
2022-07-25T06:08:05.760Z,91.44
2022-07-25T06:10:32.472Z,91.62
2022-07-25T06:13:02.579Z,91.43
2022-07-25T06:15:29.211Z,90.98
2022-07-25T06:17:56.601Z,91.07
2022-07-25T06:20:23.250Z,90.30
2022-07-25T06:22:49.876Z,90.07
2022-07-25T06:25:16.474Z,88.49
2022-07-25T06:27:43.055Z,87.11
2022-07-25T06:30:19.278Z,84.62
2022-07-25T06:32:48.107Z,85.61
2022-07-25T06:35:14.837Z,86.61
2022-07-25T06:37:41.472Z,80.00
2022-07-25T06:40:08.588Z,78.59
2022-07-25T06:42:45.518Z,77.60
2022-07-25T06:45:12.625Z,78.11
2022-07-25T06:47:39.536Z,75.95
2022-07-25T06:50:07.416Z,78.18
2022-07-25T06:52:34.542Z,77.54
2022-07-25T06:55:01.639Z,74.62
2022-07-25T06:57:28.369Z,74.97
2022-07-25T06:59:55.329Z,74.62
2022-07-25T07:02:22.003Z,71.20
2022-07-25T07:04:48.615Z,72.19
2022-07-25T07:07:15.471Z,73.38
2022-07-25T07:09:42.438Z,70.45
2022-07-25T07:12:09.529Z,71.38
2022-07-25T07:14:36.274Z,72.65
2022-07-25T07:17:03.007Z,71.87
2022-07-25T07:19:30.068Z,67.76
2022-07-25T07:21:56.675Z,66.71
2022-07-25T07:24:24.656Z,64.43
2022-07-25T07:26:52.563Z,63.08
2022-07-25T07:29:19.147Z,58.27
2022-07-25T07:31:45.856Z,60.50
2022-07-25T07:34:14.394Z,57.86
2022-07-25T07:36:43.670Z,55.75
2022-07-25T07:39:10.322Z,55.37
2022-07-25T07:41:37.934Z,50.99
2022-07-25T07:44:05.285Z,53.29
2022-07-25T07:46:31.937Z,49.94
2022-07-25T07:48:58.763Z,49.73
2022-07-25T07:51:25.830Z,49.28
2022-07-25T07:53:53.714Z,47.88
2022-07-25T07:56:23.503Z,45.46
2022-07-25T07:58:50.476Z,46.45
2022-07-25T08:01:18.088Z,46.27
2022-07-25T08:03:44.750Z,43.39
2022-07-25T08:06:11.395Z,45.30
2022-07-25T08:08:38.077Z,45.15
2022-07-25T08:11:05.023Z,44.37
2022-07-25T08:13:31.943Z,43.34
2022-07-25T08:16:01.410Z,41.88
2022-07-25T08:18:28.150Z,42.58
2022-07-25T08:20:54.796Z,41.88
2022-07-25T08:23:21.511Z,42.65
2022-07-25T08:25:48.195Z,40.87
2022-07-25T08:28:14.974Z,42.68
2022-07-25T08:30:41.812Z,40.22
2022-07-25T08:33:11.102Z,39.33
2022-07-25T08:35:38.397Z,40.73
2022-07-25T08:38:07.853Z,41.24
2022-07-25T08:40:34.585Z,40.74
2022-07-25T08:43:01.328Z,42.51
2022-07-25T08:45:28.109Z,39.27
2022-07-25T08:47:54.989Z,40.91
2022-07-25T08:50:23.592Z,39.99
2022-07-25T08:52:50.804Z,38.60
2022-07-25T08:55:21.992Z,36.99
2022-07-25T08:57:49.839Z,39.94
2022-07-25T09:00:18.640Z,37.38
2022-07-25T09:02:51.714Z,37.12
2022-07-25T09:05:18.313Z,38.33
2022-07-25T09:07:45.000Z,37.81
2022-07-25T09:10:22.215Z,41.16
2022-07-25T09:13:00.347Z,36.73
2022-07-25T09:15:35.882Z,35.92
2022-07-25T09:18:05.035Z,37.00
2022-07-25T09:20:38.191Z,36.02
2022-07-25T09:23:04.833Z,35.19
2022-07-25T09:25:32.326Z,36.99
2022-07-25T09:28:14.227Z,35.71
2022-07-25T09:30:41.555Z,37.56
2022-07-25T09:33:08.222Z,36.50
2022-07-25T09:35:35.723Z,36.82
2022-07-25T09:38:13.606Z,33.97
2022-07-25T09:40:41.125Z,37.52
2022-07-25T09:43:07.921Z,36.05
2022-07-25T09:45:34.690Z,35.68
2022-07-25T09:48:03.768Z,35.08
2022-07-25T09:50:32.424Z,35.64
2022-07-25T09:53:00.460Z,35.30
2022-07-25T09:55:28.237Z,34.21
2022-07-25T09:57:54.835Z,36.18
2022-07-25T10:00:26.499Z,35.57
2022-07-25T10:03:16.726Z,34.32
2022-07-25T10:06:16.533Z,34.36
2022-07-25T10:08:43.213Z,34.89
2022-07-25T10:11:25.316Z,35.46
2022-07-25T10:13:55.262Z,34.34
2022-07-25T10:16:26.165Z,38.17
2022-07-25T10:18:54.519Z,35.95
2022-07-25T10:21:27.211Z,36.17
2022-07-25T10:24:00.861Z,35.74
2022-07-25T10:26:28.237Z,34.46
2022-07-25T10:28:55.344Z,33.32
2022-07-25T10:31:35.683Z,35.23
2022-07-25T10:34:07.667Z,36.01
2022-07-25T10:36:48.291Z,36.98
2022-07-25T10:39:18.164Z,36.34
2022-07-25T10:41:54.154Z,36.83
2022-07-25T10:44:20.907Z,35.66
2022-07-25T10:46:47.651Z,37.36
2022-07-25T10:49:20.612Z,37.01
2022-07-25T10:52:00.318Z,36.09
2022-07-25T10:54:33.254Z,38.75
2022-07-25T10:56:59.950Z,35.57
2022-07-25T10:59:37.831Z,36.97
2022-07-25T11:02:07.135Z,37.23
2022-07-25T11:04:34.178Z,36.86
2022-07-25T11:07:13.919Z,36.67
2022-07-25T11:09:43.113Z,35.84
2022-07-25T11:12:10.282Z,37.34
2022-07-25T11:14:41.099Z,36.25
2022-07-25T11:17:16.131Z,33.70
2022-07-25T11:19:44.798Z,35.12
2022-07-25T11:22:11.432Z,37.15
2022-07-25T11:24:44.075Z,36.38
2022-07-25T11:27:13.831Z,36.63
2022-07-25T11:29:41.209Z,36.40
2022-07-25T11:32:09.990Z,34.42
2022-07-25T11:34:41.774Z,35.33
2022-07-25T11:37:09.393Z,37.05
2022-07-25T11:39:36.873Z,36.69
2022-07-25T11:42:06.589Z,36.55
2022-07-25T11:44:47.449Z,36.81
2022-07-25T11:47:32.092Z,35.22
2022-07-25T11:50:03.096Z,35.17
2022-07-25T11:52:35.110Z,37.70
2022-07-25T11:55:13.816Z,35.71
2022-07-25T11:57:42.506Z,36.65
2022-07-25T12:00:19.804Z,35.03
2022-07-25T12:02:47.202Z,37.94
2022-07-25T12:05:16.230Z,37.25
2022-07-25T12:07:50.506Z,35.66
2022-07-25T12:10:18.113Z,36.93
2022-07-25T12:12:56.013Z,36.85
2022-07-25T12:15:30.015Z,37.46
2022-07-25T12:17:57.086Z,37.31
2022-07-25T12:20:28.530Z,37.43
2022-07-25T12:23:00.516Z,37.55
2022-07-25T12:25:30.858Z,37.13
2022-07-25T12:27:58.304Z,37.61
2022-07-25T12:30:25.656Z,38.22
2022-07-25T12:32:52.329Z,35.42
2022-07-25T12:35:18.967Z,37.09
2022-07-25T12:37:45.670Z,38.28
2022-07-25T12:40:12.885Z,36.36
2022-07-25T12:42:39.906Z,34.63
2022-07-25T12:45:07.970Z,34.99
2022-07-25T12:47:36.511Z,34.38
2022-07-25T12:50:03.711Z,35.92
2022-07-25T12:52:30.394Z,36.17
2022-07-25T12:54:57.073Z,36.07
2022-07-25T12:57:23.714Z,36.16
2022-07-25T12:59:50.444Z,35.62
2022-07-25T13:02:17.126Z,36.33
2022-07-25T13:04:43.952Z,36.56
2022-07-25T13:07:10.749Z,36.45
2022-07-25T13:09:38.840Z,33.75
2022-07-25T13:12:07.443Z,35.10
2022-07-25T13:14:34.088Z,34.91
2022-07-25T13:17:00.896Z,34.17
2022-07-25T13:19:28.005Z,34.59
2022-07-25T13:21:54.680Z,35.09
2022-07-25T13:24:21.419Z,34.08
2022-07-25T13:26:48.147Z,35.60
2022-07-25T13:29:15.239Z,35.05
2022-07-25T13:31:43.743Z,36.63
2022-07-25T13:34:11.064Z,34.42
2022-07-25T13:36:37.908Z,35.39
2022-07-25T13:39:05.237Z,36.57
2022-07-25T13:41:32.359Z,36.10
2022-07-25T13:43:59.487Z,34.91
2022-07-25T13:46:26.361Z,36.28
2022-07-25T13:48:53.093Z,36.21
2022-07-25T13:51:19.843Z,34.79
2022-07-25T13:53:46.622Z,34.09
2022-07-25T13:56:13.529Z,35.02
2022-07-25T13:58:40.297Z,33.99
2022-07-25T14:01:07.988Z,32.22
2022-07-25T14:03:34.824Z,33.51
2022-07-25T14:06:01.556Z,32.11
2022-07-25T14:08:28.276Z,33.97
2022-07-25T14:10:55.010Z,33.35
2022-07-25T14:13:21.779Z,32.82
2022-07-25T14:15:48.510Z,35.36
2022-07-25T14:18:15.322Z,32.90
2022-07-25T14:20:41.949Z,33.04
2022-07-25T14:23:08.646Z,34.73
2022-07-25T14:25:35.915Z,32.81
2022-07-25T14:28:02.624Z,32.82
2022-07-25T14:30:29.824Z,33.04
2022-07-25T14:32:56.568Z,33.46
2022-07-25T14:35:24.688Z,32.76
2022-07-25T14:37:55.212Z,34.10
2022-07-25T14:40:22.060Z,32.61
2022-07-25T14:42:48.711Z,32.73
2022-07-25T14:45:15.810Z,33.53
2022-07-25T14:47:42.722Z,32.34
2022-07-25T14:50:11.269Z,33.08
2022-07-25T14:52:37.878Z,31.91
2022-07-25T14:55:04.949Z,33.52
2022-07-25T14:57:31.669Z,33.52
2022-07-25T14:59:58.454Z,31.62
2022-07-25T15:02:25.148Z,32.75
2022-07-25T15:04:52.223Z,32.11
2022-07-25T15:07:19.423Z,32.55
2022-07-25T15:09:46.081Z,31.80
2022-07-25T15:12:16.421Z,34.21
2022-07-25T15:14:43.895Z,33.26
2022-07-25T15:17:10.700Z,32.42
2022-07-25T15:19:37.372Z,31.58
2022-07-25T15:22:04.712Z,32.20
2022-07-25T15:24:44.338Z,33.28
2022-07-25T15:27:18.834Z,32.64
2022-07-25T15:29:46.543Z,33.67
2022-07-25T15:32:13.166Z,35.37
2022-07-25T15:34:40.273Z,32.79
2022-07-25T15:37:06.976Z,31.83
2022-07-25T15:39:34.246Z,32.48
2022-07-25T15:42:01.215Z,32.18
2022-07-25T15:44:28.712Z,32.54
2022-07-25T15:46:55.369Z,31.99
2022-07-25T15:49:22.223Z,31.70
2022-07-25T15:51:49.267Z,31.25
2022-07-25T15:54:16.892Z,31.92
2022-07-25T15:56:43.573Z,31.19
2022-07-25T15:59:10.459Z,30.55
2022-07-25T16:01:37.466Z,30.79
2022-07-25T16:04:04.456Z,32.10
2022-07-25T16:06:31.264Z,30.35
2022-07-25T16:08:58.305Z,30.89
2022-07-25T16:11:25.111Z,32.28
2022-07-25T16:13:51.888Z,30.95
2022-07-25T16:16:18.940Z,31.35
2022-07-25T16:18:45.688Z,32.27
2022-07-25T16:21:12.407Z,32.90
2022-07-25T16:23:43.744Z,32.92
2022-07-25T16:26:12.168Z,32.20
2022-07-25T16:28:39.896Z,31.25
2022-07-25T16:31:06.871Z,33.47
2022-07-25T16:33:33.604Z,32.03
2022-07-25T16:36:00.380Z,31.84
2022-07-25T16:38:27.204Z,33.51
2022-07-25T16:40:53.935Z,33.05
2022-07-25T16:43:20.730Z,32.60
2022-07-25T16:45:47.531Z,32.54
2022-07-25T16:48:14.359Z,32.99
2022-07-25T16:50:41.140Z,34.37
2022-07-25T16:53:08.002Z,33.37
2022-07-25T16:55:34.800Z,37.43
2022-07-25T16:58:01.716Z,37.87
2022-07-25T17:00:30.416Z,40.86
2022-07-25T17:02:57.423Z,45.25
2022-07-25T17:05:24.685Z,46.35
2022-07-25T17:07:58.727Z,45.57
2022-07-25T17:10:25.911Z,47.82
2022-07-25T17:12:52.594Z,49.93
2022-07-25T17:15:19.458Z,49.08
2022-07-25T17:17:46.335Z,48.76
2022-07-25T17:20:12.999Z,50.06
2022-07-25T17:22:39.789Z,50.54
2022-07-25T17:25:06.802Z,48.74
2022-07-25T17:27:33.453Z,48.05
2022-07-25T17:30:00.291Z,47.49
2022-07-25T17:32:29.895Z,52.35
2022-07-25T17:34:57.574Z,52.42
2022-07-25T17:37:24.348Z,50.50
2022-07-25T17:39:51.171Z,54.49
2022-07-25T17:42:17.959Z,53.16
2022-07-25T17:44:44.712Z,43.71
2022-07-25T17:47:11.871Z,44.66
2022-07-25T17:49:38.617Z,52.93
2022-07-25T17:52:05.861Z,64.44
2022-07-25T17:54:32.770Z,70.05
2022-07-25T17:56:59.946Z,74.57
2022-07-25T17:59:26.728Z,73.42
2022-07-25T18:01:53.538Z,75.71
2022-07-25T18:04:20.351Z,75.72
2022-07-25T18:06:47.342Z,76.42
2022-07-25T18:09:17.136Z,74.58
2022-07-25T18:11:43.884Z,77.02
2022-07-25T18:14:10.921Z,79.54
2022-07-25T18:16:38.006Z,80.12
2022-07-25T18:19:04.732Z,82.58
2022-07-25T18:21:31.604Z,82.73
2022-07-25T18:23:58.423Z,84.81
2022-07-25T18:26:25.147Z,83.48
2022-07-25T18:28:51.988Z,82.88
2022-07-25T18:31:18.739Z,82.30
2022-07-25T18:33:45.593Z,82.51
2022-07-25T18:36:12.345Z,81.11
2022-07-25T18:38:39.045Z,83.24
2022-07-25T18:41:27.955Z,82.45
2022-07-25T18:43:54.410Z,84.06
2022-07-25T18:46:21.246Z,83.93
2022-07-25T18:48:48.089Z,84.95
2022-07-25T18:51:14.981Z,85.43
2022-07-25T18:53:45.946Z,84.55
2022-07-25T18:56:14.328Z,84.68
2022-07-25T18:58:41.082Z,84.35
2022-07-25T19:01:09.500Z,85.36
2022-07-25T19:03:36.875Z,85.92
2022-07-25T19:06:04.158Z,85.49
2022-07-25T19:08:30.994Z,86.46
2022-07-25T19:10:57.844Z,85.15
2022-07-25T19:13:47.765Z,84.38
2022-07-25T19:16:12.188Z,85.05
2022-07-25T19:18:40.120Z,85.65
2022-07-25T19:21:06.986Z,85.53
2022-07-25T19:23:33.803Z,85.53
2022-07-25T19:26:01.462Z,84.47
2022-07-25T19:28:29.378Z,84.50
2022-07-25T19:30:56.758Z,85.94
2022-07-25T19:33:23.613Z,86.35
2022-07-25T19:35:50.422Z,86.03
2022-07-25T19:38:17.151Z,86.33
2022-07-25T19:40:43.916Z,86.73
2022-07-25T19:43:11.119Z,87.34
2022-07-25T19:45:37.919Z,86.82
2022-07-25T19:48:06.389Z,86.67
2022-07-25T19:50:33.239Z,86.27
2022-07-25T19:53:01.022Z,86.31
2022-07-25T19:55:29.296Z,86.68
2022-07-25T19:57:56.027Z,87.14
2022-07-25T20:00:22.865Z,86.74
2022-07-25T20:02:49.691Z,87.72
2022-07-25T20:05:17.230Z,87.37
2022-07-25T20:07:43.987Z,87.53
2022-07-25T20:10:10.838Z,88.09
2022-07-25T20:12:38.034Z,87.69
2022-07-25T20:15:06.819Z,87.19
2022-07-25T20:17:33.536Z,87.29
2022-07-25T20:20:00.253Z,87.68
2022-07-25T20:22:27.049Z,88.93
2022-07-25T20:24:53.849Z,88.97
2022-07-25T20:27:20.586Z,88.71
2022-07-25T20:29:47.306Z,88.92
2022-07-25T20:32:14.186Z,88.13
2022-07-25T20:34:40.990Z,88.75
2022-07-25T20:37:07.746Z,88.41
2022-07-25T20:39:34.477Z,88.66
2022-07-25T20:42:01.317Z,88.27
2022-07-25T20:44:28.106Z,88.00
2022-07-25T20:46:55.049Z,88.86
2022-07-25T20:49:21.914Z,89.02
2022-07-25T20:51:52.534Z,88.99
2022-07-25T20:54:22.202Z,89.82
2022-07-25T20:56:48.958Z,89.96
2022-07-25T20:59:15.817Z,89.96
2022-07-25T21:01:42.611Z,88.79
2022-07-25T21:04:09.357Z,89.14
2022-07-25T21:06:36.713Z,89.47
2022-07-25T21:09:04.634Z,89.88
2022-07-25T21:11:31.536Z,90.77
2022-07-25T21:13:58.170Z,89.12
2022-07-25T21:16:25.496Z,89.64
2022-07-25T21:18:52.257Z,89.63
2022-07-25T21:21:18.924Z,89.11
2022-07-25T21:23:45.720Z,87.69
2022-07-25T21:26:13.320Z,87.63
2022-07-25T21:28:40.091Z,87.90
2022-07-25T21:31:06.980Z,86.48
2022-07-25T21:33:34.107Z,87.36
2022-07-25T21:36:00.898Z,86.75
2022-07-25T21:38:29.580Z,87.33
2022-07-25T21:40:58.205Z,87.39
2022-07-25T21:43:25.095Z,87.34
2022-07-25T21:45:51.841Z,87.24
2022-07-25T21:48:22.080Z,85.93
2022-07-25T21:50:49.378Z,86.34
2022-07-25T21:53:18.819Z,85.99
2022-07-25T21:55:45.580Z,85.56
2022-07-25T21:58:12.323Z,86.45
2022-07-25T22:00:45.578Z,87.19
2022-07-25T22:03:12.550Z,87.48
2022-07-25T22:05:39.386Z,84.03
2022-07-25T22:08:06.115Z,83.85
2022-07-25T22:10:32.864Z,83.95
2022-07-25T22:12:59.500Z,84.26
2022-07-25T22:15:26.516Z,85.24
2022-07-25T22:17:53.450Z,86.91
2022-07-25T22:20:20.335Z,87.26
2022-07-25T22:22:47.703Z,88.64
2022-07-25T22:25:15.793Z,89.52
2022-07-25T22:27:42.710Z,88.13
2022-07-25T22:30:13.471Z,88.23
2022-07-25T22:32:44.922Z,88.41
2022-07-25T22:35:12.771Z,88.52
2022-07-25T22:37:39.863Z,89.19
2022-07-25T22:40:06.985Z,89.49
2022-07-25T22:42:33.749Z,89.54
2022-07-25T22:45:00.555Z,89.88
2022-07-25T22:47:27.590Z,90.55
2022-07-25T22:49:54.339Z,90.45
2022-07-25T22:52:21.122Z,90.49
2022-07-25T22:54:47.830Z,91.25
2022-07-25T22:57:14.557Z,91.61
2022-07-25T22:59:41.295Z,92.14
2022-07-25T23:02:08.116Z,92.74
2022-07-25T23:04:34.993Z,92.41
2022-07-25T23:07:01.897Z,92.69
2022-07-25T23:09:36.183Z,92.61
2022-07-25T23:12:04.591Z,92.37
2022-07-25T23:14:31.453Z,92.51
2022-07-25T23:16:58.289Z,92.21
2022-07-25T23:19:25.020Z,91.85
2022-07-25T23:21:52.131Z,92.35
2022-07-25T23:24:18.833Z,91.83
2022-07-25T23:26:48.592Z,92.31
2022-07-25T23:29:18.533Z,92.61
2022-07-25T23:31:45.329Z,92.38
2022-07-25T23:34:12.136Z,92.33
2022-07-25T23:36:38.872Z,92.89
2022-07-25T23:39:05.990Z,92.28
2022-07-25T23:41:33.182Z,91.83
2022-07-25T23:44:01.217Z,91.16
2022-07-25T23:46:31.592Z,91.22
2022-07-25T23:48:58.802Z,90.95
2022-07-25T23:51:25.860Z,90.27
2022-07-25T23:53:52.659Z,90.28
2022-07-25T23:56:21.240Z,90.85
2022-07-25T23:58:48.597Z,91.18
